Résultats de la compétition "Regionale 2 LIFCO Sapins Brûlés 26/09/10" du 26-09-2010 organisée par le club 9502
     
  Télécharger le fichier CSV.  
     
     

 Circuit "Circuit A"

Licence Nom Prénom Temps CN
précédent
Score sur
la course
Différence
7856BOUDETPierre1:14:0962755798-477
11531BRAULTLionel1:18:5555265448-78
19101MACLEBruno1:18:5651375447+310
9863VAUCHERJeremy1:19:0860065433-573
6481RORASebastien1:21:1154015296-105
8823LEGUENOlivier1:22:3553295206-123
4374BONNEAUMaxime1:24:1263535106-1247
12350PRUNIERJ-Marc1:25:3848655020+155
10782MAILLARDLudovic1:27:0446834938+255
15176QUINQUENELHerve1:28:1047624876+114
21159WOUTERSDenis1:28:5650104834-176
9601BESTELThierry1:29:4358344792-1042
22399GUILLEMINWilly1:32:0940234665+642
3742JOURDATOlivier1:33:1249944613-381
8990GUESDONMaxime1:34:3342874547+260
20377CADARTYoann1:36:1542884467+179
21168POIRSONGaëtan1:37:5134034394+991
1982HALLAYDominique1:41:2241174241+124
2171DEVILLERSChristophe1:43:2444944158-336
18058BLAIRONSylvain1:43:5330844138+1054
130BERARDJ-Philippe1:45:1344314086-345
347LAHAUSSEThierry1:45:48N/A4063N/A
1433SERGEANTDominique1:46:3452964034-1262
21472DALLEEric1:47:1635604008+448
22548GUIOTAlexis1:48:4734233952+529
20779MEHEUTGuillaume1:49:3335193924+405
19558ROCHStephane1:54:3442763753-523
18446JALABERTJulien1:55:14N/A3731N/A
23446LAURENTThomas1:58:14N/A3636N/A
22113RAERMichel2:03:3234403480+40
853VALLATPierrick2:03:4236553475-180
22780AUGUSTYNOWICZBrice2:05:0503437N/A
23185ROUSSEAUXNicolas2:31:07N/A2845N/A
14645BOYETChristophe2:33:0925682807+239
6335YVEThomasN/AN/A0N/A

  Indice de confiance du circuit (moyenne des différences entre CN et score sur la course des 3 à 10 premiers) : 172




 Circuit "Circuit B"

Licence Nom Prénom Temps CN
précédent
Score sur
la course
Différence
10755L'HERITIERJean-Philippe0:58:5564135971-442
2252GROSHENSDidier0:59:0160685961-107
4181RAUTURIERBenoit1:00:5157205781+61
12114PANNIERPascal1:01:2857125723+11
10889BORDENAVEClaude1:02:0847745662+888
7251GRUSELLEFabien1:02:2163865642-744
7019CASTAINGOlivier1:03:2961025541-561
3201RAUTURIERChristophe1:03:3156445538-106
1978GASNOTLaurent1:04:3655525446-106
1365LEJEUNEBruno1:04:3857345443-291
13391ROGERAlexandre1:06:1451375311+174
4182RAUTURIERMaxime1:06:5654545256-198
1382GASTINEAUJ-Francois1:08:4449625118+156
2221BEAUVISAGEChristoph1:10:4447724973+201
20416STEPHANYAntoine1:12:0539224880+958
4178ADRIENChristophe1:12:3648414846+5
11834BEAUVISAGEAudry1:14:3548214717-104
16776SANCHEZPhilippe1:15:3351564656-500
14059TEXIERSamuel1:17:0745444562+18
4357ROULLEAUXAlain1:17:5248104518-292
8548CLOUARDFrederic1:19:2942844426+142
2142NAELPascal1:20:3249664368-598
16221CARPENTIERJ-Baptist1:20:44N/A4357N/A
7610HEROUARDThierry1:20:5654904347-1143
11997DELEIRISFlorian1:23:0730994232+1133
8445FINASCeline1:23:3048854213-672
15253DELAVEAUPatrice1:24:1336054177+572
1384HERTZOGTristan1:24:2943314164-167
8889GARNIERVincent1:25:1642424126-116
14800DAMBRINEFabrice1:27:5537734001+228
1977FISCHERFrederic1:28:1444803987-493
12241VIONLudovic1:30:0637313904+173
20511MASSOULIÉJean-pierre1:32:1627173813+1096
14688CARUELFrancois1:33:4643493752-597
20466MORANDJean-philippe1:40:4333333493+160
15226MERIGUETFabien1:40:5630123485+473
21998GALLOISMarc1:41:2024823472+990
11556LIESSEFrank1:43:1540913407-684
11999LAURENTMichel1:44:0003383N/A
10491FARGANELThierry1:44:0833913378-13
23346VANLEENEBenoit1:45:30N/A3334N/A
20982CHENOTFranck1:48:3430553240+185
22313BIBAUTSébastien1:50:3936623179-483
12190AYMARDLaurent1:50:54N/A3172N/A
21184MUGICAYvan1:52:0235613140-421
3781TOXEPhilippe1:52:5531383115-23
11302CARRIELaurent1:56:5130453011-34
6502WOLOCHYannis2:02:0337472882-865
20392JOUFFRAISStéphane2:04:3816482823+1175
20431WANNAVONGHZManyrath2:16:0720432584+541
16267FINAUD-GUYOTLionelN/A29410-2941
23027NIELFabriceN/AN/A0N/A
22718DUPONTFabriceN/A00N/A

  Indice de confiance du circuit (moyenne des différences entre CN et score sur la course des 3 à 10 premiers) : 104




 Circuit "Circuit C"

Licence Nom Prénom Temps CN
précédent
Score sur
la course
Différence
2034BAROUXJacky0:56:3763795237-1142
12558DUBOISPhilippe0:59:2854614986-475
23700ODLUNDErika0:59:30N/A4983N/A
3194ESTIVALJ-Luc0:59:4351864965-221
10809GUERINFranck1:01:0643864853+467
2032BAROUXCeline1:02:4138114730+919
7902PORTRONAlain1:04:1543144615+301
8567BARDESPhilippe1:04:2851224599-523
2878PATURETBertrand1:10:2344974213-284
14302CAMPBELLNick1:10:2551554211-944
16117TARDYLaetitia1:12:1151994108-1091
8890BARSANTIPatricia1:12:2035464099+553
14900PRESSONBernard1:13:2338744040+166
14947JOUVEBernard1:13:2641544038-116
19652MISZOVITSAndrea1:13:5934044008+604
4373BONNEAUMathilde1:14:5939323954+22
23679COUTALAlexandre1:15:22N/A3934N/A
13744PAULETGuillaume1:15:2441233932-191
13174BARDURYEmile1:18:5140613760-301
18061TCHENGSophie1:19:2203736N/A
13387DEBRABANDEREGilles1:20:3440683680-388
22385TOMASSIJean Marc1:27:4024513382+931
2018ALARZALuis1:28:0003369N/A
22600CAVALIERHéloïse1:29:0425903329+739
5627STRULLUFrederic1:29:4829523302+350
2135COMBATBruno1:33:2627943173+379
19570TOULEMONDEBruno1:36:3026573073+416
16946POTEAUJimmy1:37:0624563054+598
1929CHINCHOLEPaul1:43:3331162863-253
2160ARLANDISJ-Christoph1:44:0627562848+92
4581KARPYNChristian1:44:2827892838+49
23680LEPREUX Sébastien1:44:55N/A2826N/A
17649LABROUSSEMichel1:46:1623752790+415
9126NOYEyal1:48:2834592734-725
18056ADOLPHEPhilippe2:01:2232052443-762
10338ROGIERYann2:09:4726002285-315
22280POLARDMarie2:43:2001815N/A
23617DETTWILLERBrunoN/AN/A0N/A

  Indice de confiance du circuit (moyenne des différences entre CN et score sur la course des 3 à 10 premiers) : 251




 Circuit "Circuit D"

Licence Nom Prénom Temps CN
précédent
Score sur
la course
Différence
4879RAUTURIERQuentin0:37:1747015175+474
8922ROULLEAUXNoemie0:41:4347924625-167
13244VARRONStephanie0:43:4751134406-707
14681ROGERAymeric0:44:2239804348+368
11307BEAUVISAGELauriane0:44:5052904303-987
8551CLOUARDLucile0:45:3139324239+307
2119VANNIERBernard0:49:2454753905-1570
2146HAMONPatrick0:50:0646943851-843
22398BONNETVincent0:51:0025863783+1197
17309BESTELFlorence0:54:5534923513+21
19345CHARDOTJulia0:55:0227693506+737
14684MERIGUETThomas0:58:5729333273+340
571LEPETITMichel0:59:2637763246-530
23686MINIOTFrédérique1:01:23N/A3143N/A
3600LAZAROWICZRichard1:02:1432213100-121
14946LEVREUXNathalie1:03:3432093035-174
21021ROLLINRomain1:04:4122692983+714
17406CAMPBELLJane1:04:5045032976-1527
8920TOUZAIN ROULLEAUXIsabelle1:06:4337832892-891
22363BONNETDominique1:07:4802846N/A
19023GAUQUELINJerome1:08:2826862818+132
20395NOMDEDEUEmilie1:12:0026502680+30
16309CAVARROCCeline1:12:2017362667+931
1379CRENNChristian1:13:3532102622-588
4874BARBIERLuc1:15:2028282561-267
21988MULLERNicolas1:15:311912555+2364
20418PIGEOTSylvie1:16:2830152523-492
19362TOULEMONDECamille1:18:0028642473-391
22539CHARDOTThierry1:19:4915492417+868
23669CALVETArnaud1:19:56N/A2414N/A
3195CLETArlette1:20:1933402402-938
23681FLANDINBéatrice1:22:42N/A2333N/A
8549CLOUARDFlorence1:23:3827372307-430
17764CHOUKROUNGyongyike1:23:4629882303-685
22314CHARDOTUlrike1:24:1314752291+816
15228CHAUVINEAUChristine1:29:0624142165-249
23347HOUGHTONHugo1:29:11N/A2163N/A
18140AUBERTFabrice1:30:1825412137-404
22658TRIBOISJérémy1:34:32N/A2041N/A
22384VILLAMEUli1:36:0415982008+410
4191GARROSOlivier1:40:4527571915-842
9686NOY-GSELLJessica1:41:3620521899-153
11985DURANDAgnès1:42:4101879N/A
23564SALVADEAngélique1:46:18N/A1815N/A
22584VERCAMBREJeanne1:54:2701686N/A
23369NIECKARZAlain2:01:39N/A1586N/A
1262BEHOTEGUYBernardN/A38930-3893

  Indice de confiance du circuit (moyenne des différences entre CN et score sur la course des 3 à 10 premiers) : 277




 Circuit "Circuit E"

Licence Nom Prénom Temps CN
précédent
Score sur
la course
Différence
12560ESTIVALThierry0:37:3732764200+924
22315CHARDOTMarion0:50:5620243102+1078
22359LAMBERT Grégoire0:51:1603081N/A
7520BOUCHESylvie0:54:3235112897-614
10758BESTELSandra0:54:5426242877+253
11559ROULLEAUXJulie0:54:5639192876-1043
14761DEBRABANDEREClaudine0:58:0123122723+411
22234PIGEOTLaurène1:01:4220612560+499
23668FERNANDEZLauriane1:04:45N/A2440N/A
19268LEJEUNEPaul1:06:2119412381+440
20386DUTERAGEMarie1:09:1413382282+944
6094LEROUEILM-Paule1:09:2136532278-1375
19686GARINGilles1:09:3323452271-74
3200RAUTURIERNathalie1:12:2231712183-988
23064LUSTGARTENTom1:13:57N/A2136N/A
20383DUTERAGECatherine1:21:5713611928+567
14002DUBOISSylvie1:24:0423121879-433
1381DIEUDONNERoland1:24:2336291872-1757
295PEETERSSimone1:25:4928311841-990
19782MEYMilena1:26:4213271822+495
23705BERCOTClément1:27:42N/A1801N/A
3370GAWSEWITCHGerald1:34:3424901670-820
570GUICHARDONGeorges1:40:1225661577-989
12377DENISMartine1:54:2129451381-1564
22936PANNIERKarine2:07:24N/A1240N/A
19689GIRARDLucilleN/A27410-2741
11311GARNIER-BARSANTIClaraN/A19020-1902
18506BENHIDACécileN/A20740-2074
23568MARTINPascaleN/AN/A0N/A
22575DREANOBenjaminN/A13770-1377
20864VIRETTO CITCéline N/A25340-2534
19260CARUELMarieN/A11910-1191

  Indice de confiance du circuit (moyenne des différences entre CN et score sur la course des 3 à 10 premiers) : 376




 Circuit "Circuit F"

Licence Nom Prénom Temps CN
précédent
Score sur
la course
Différence
16688PANNIERQuentin0:27:1122712421+150
17308BESTELArnault0:30:4422362142-94
8552CLOUARDAugustin0:30:5923232124-199
14751DOURDOU-VARRONMalo0:33:1022011985-216
12561ESTIVALSolene0:35:0119461880-66
20717GARINPaul0:54:3001208N/A
21305COMBATAlexandre0:55:089301194+264
16689ROGERAnton0:55:3210891185+96
21201CARUELRémi1:00:0701095N/A
19375MERIGUETEmilie1:02:547821046+264
19099PANNIERAxelN/A12160-1216

  Indice de confiance du circuit (moyenne des différences entre CN et score sur la course des 3 à 10 premiers) : 225






 Retour